sensor_id;sensor_type;location;lat;lon;timestamp;P1;durP1;ratioP1;P2;durP2;ratioP2
75311;SDS011;63906;55.686;37.532;2024-01-06T00:00:22;0.57;;;0.47;;
75311;SDS011;63906;55.686;37.532;2024-01-06T00:05:23;2.42;;;1.52;;
75311;SDS011;63906;55.686;37.532;2024-01-06T00:10:23;1.37;;;1.00;;
75311;SDS011;63906;55.686;37.532;2024-01-06T00:15:24;3.17;;;1.77;;
75311;SDS011;63906;55.686;37.532;2024-01-06T00:20:24;4.67;;;1.03;;
75311;SDS011;63906;55.686;37.532;2024-01-06T00:25:25;1.10;;;0.67;;
75311;SDS011;63906;55.686;37.532;2024-01-06T00:30:25;1.13;;;1.02;;
75311;SDS011;63906;55.686;37.532;2024-01-06T00:35:26;3.43;;;0.70;;
75311;SDS011;63906;55.686;37.532;2024-01-06T00:40:26;2.83;;;1.97;;
75311;SDS011;63906;55.686;37.532;2024-01-06T00:45:27;1.93;;;1.47;;
75311;SDS011;63906;55.686;37.532;2024-01-06T00:50:27;3.83;;;1.33;;
75311;SDS011;63906;55.686;37.532;2024-01-06T00:55:27;2.63;;;1.30;;
75311;SDS011;63906;55.686;37.532;2024-01-06T01:00:28;2.13;;;1.87;;
75311;SDS011;63906;55.686;37.532;2024-01-06T01:05:28;3.30;;;1.97;;
75311;SDS011;63906;55.686;37.532;2024-01-06T01:10:29;1.70;;;1.55;;
75311;SDS011;63906;55.686;37.532;2024-01-06T01:15:29;5.50;;;1.57;;
75311;SDS011;63906;55.686;37.532;2024-01-06T01:20:30;2.27;;;1.73;;
75311;SDS011;63906;55.686;37.532;2024-01-06T01:25:30;2.30;;;2.10;;
75311;SDS011;63906;55.686;37.532;2024-01-06T01:30:31;1.73;;;1.60;;
75311;SDS011;63906;55.686;37.532;2024-01-06T01:35:32;3.38;;;1.25;;
75311;SDS011;63906;55.686;37.532;2024-01-06T01:40:32;4.57;;;0.70;;
75311;SDS011;63906;55.686;37.532;2024-01-06T01:45:33;3.05;;;1.55;;
75311;SDS011;63906;55.686;37.532;2024-01-06T01:50:33;1.40;;;1.30;;
75311;SDS011;63906;55.686;37.532;2024-01-06T01:55:34;3.08;;;1.23;;
75311;SDS011;63906;55.686;37.532;2024-01-06T02:00:35;2.33;;;1.50;;
75311;SDS011;63906;55.686;37.532;2024-01-06T02:05:35;4.07;;;2.10;;
75311;SDS011;63906;55.686;37.532;2024-01-06T02:10:36;3.27;;;1.53;;
75311;SDS011;63906;55.686;37.532;2024-01-06T02:15:36;5.17;;;1.70;;
75311;SDS011;63906;55.686;37.532;2024-01-06T02:20:37;1.92;;;1.23;;
75311;SDS011;63906;55.686;37.532;2024-01-06T02:25:42;1.63;;;0.60;;
75311;SDS011;63906;55.686;37.532;2024-01-06T02:30:42;1.77;;;1.23;;
75311;SDS011;63906;55.686;37.532;2024-01-06T02:35:43;1.55;;;1.30;;
75311;SDS011;63906;55.686;37.532;2024-01-06T02:40:59;4.23;;;1.47;;
75311;SDS011;63906;55.686;37.532;2024-01-06T02:45:59;4.18;;;1.42;;
75311;SDS011;63906;55.686;37.532;2024-01-06T02:51:00;4.90;;;1.30;;
75311;SDS011;63906;55.686;37.532;2024-01-06T02:56:00;9.10;;;2.43;;
75311;SDS011;63906;55.686;37.532;2024-01-06T03:01:01;10.27;;;2.07;;
75311;SDS011;63906;55.686;37.532;2024-01-06T03:06:01;3.00;;;1.97;;
75311;SDS011;63906;55.686;37.532;2024-01-06T03:11:02;3.30;;;1.38;;
75311;SDS011;63906;55.686;37.532;2024-01-06T03:16:04;1.73;;;0.95;;
75311;SDS011;63906;55.686;37.532;2024-01-06T03:21:16;8.90;;;2.42;;
75311;SDS011;63906;55.686;37.532;2024-01-06T03:26:20;2.47;;;1.27;;
75311;SDS011;63906;55.686;37.532;2024-01-06T03:31:21;7.80;;;2.25;;
75311;SDS011;63906;55.686;37.532;2024-01-06T03:36:22;7.63;;;3.17;;
75311;SDS011;63906;55.686;37.532;2024-01-06T03:41:22;8.10;;;1.70;;
75311;SDS011;63906;55.686;37.532;2024-01-06T03:46:23;3.53;;;2.00;;
75311;SDS011;63906;55.686;37.532;2024-01-06T03:51:23;9.60;;;2.88;;
75311;SDS011;63906;55.686;37.532;2024-01-06T03:56:24;7.27;;;3.50;;
75311;SDS011;63906;55.686;37.532;2024-01-06T04:01:24;5.90;;;1.53;;
75311;SDS011;63906;55.686;37.532;2024-01-06T04:06:25;5.70;;;1.60;;
75311;SDS011;63906;55.686;37.532;2024-01-06T04:11:25;4.07;;;1.93;;
75311;SDS011;63906;55.686;37.532;2024-01-06T04:16:26;2.20;;;1.83;;
75311;SDS011;63906;55.686;37.532;2024-01-06T04:21:29;5.43;;;1.70;;
75311;SDS011;63906;55.686;37.532;2024-01-06T04:26:30;4.50;;;2.40;;
75311;SDS011;63906;55.686;37.532;2024-01-06T04:31:30;2.43;;;1.53;;
75311;SDS011;63906;55.686;37.532;2024-01-06T04:36:31;5.95;;;2.85;;
75311;SDS011;63906;55.686;37.532;2024-01-06T04:41:31;2.83;;;1.90;;
75311;SDS011;63906;55.686;37.532;2024-01-06T04:46:32;3.05;;;1.77;;
75311;SDS011;63906;55.686;37.532;2024-01-06T04:51:33;4.63;;;2.47;;
75311;SDS011;63906;55.686;37.532;2024-01-06T04:56:33;3.90;;;2.10;;
75311;SDS011;63906;55.686;37.532;2024-01-06T05:01:34;3.90;;;2.15;;
75311;SDS011;63906;55.686;37.532;2024-01-06T05:06:34;4.95;;;2.55;;
75311;SDS011;63906;55.686;37.532;2024-01-06T05:11:35;4.40;;;1.37;;
75311;SDS011;63906;55.686;37.532;2024-01-06T05:16:35;6.70;;;2.57;;
75311;SDS011;63906;55.686;37.532;2024-01-06T05:21:36;2.78;;;1.70;;
75311;SDS011;63906;55.686;37.532;2024-01-06T05:26:36;5.00;;;1.67;;
75311;SDS011;63906;55.686;37.532;2024-01-06T05:31:37;4.27;;;3.33;;
75311;SDS011;63906;55.686;37.532;2024-01-06T05:36:37;2.57;;;1.80;;
75311;SDS011;63906;55.686;37.532;2024-01-06T05:41:38;5.60;;;3.00;;
75311;SDS011;63906;55.686;37.532;2024-01-06T05:46:39;6.68;;;3.35;;
75311;SDS011;63906;55.686;37.532;2024-01-06T05:51:44;4.53;;;2.83;;
75311;SDS011;63906;55.686;37.532;2024-01-06T05:56:45;9.35;;;3.13;;
75311;SDS011;63906;55.686;37.532;2024-01-06T06:01:46;4.72;;;3.00;;
75311;SDS011;63906;55.686;37.532;2024-01-06T06:06:47;4.40;;;2.20;;
75311;SDS011;63906;55.686;37.532;2024-01-06T06:11:47;5.60;;;2.50;;
75311;SDS011;63906;55.686;37.532;2024-01-06T06:16:48;5.32;;;3.35;;
75311;SDS011;63906;55.686;37.532;2024-01-06T06:21:49;4.40;;;2.28;;
75311;SDS011;63906;55.686;37.532;2024-01-06T06:26:49;3.47;;;2.00;;
75311;SDS011;63906;55.686;37.532;2024-01-06T06:31:49;4.60;;;2.83;;
75311;SDS011;63906;55.686;37.532;2024-01-06T06:36:50;3.00;;;1.77;;
75311;SDS011;63906;55.686;37.532;2024-01-06T06:41:50;10.00;;;2.80;;
75311;SDS011;63906;55.686;37.532;2024-01-06T06:46:51;7.67;;;3.13;;
75311;SDS011;63906;55.686;37.532;2024-01-06T06:51:51;5.50;;;2.03;;
75311;SDS011;63906;55.686;37.532;2024-01-06T06:56:52;5.60;;;2.60;;
75311;SDS011;63906;55.686;37.532;2024-01-06T07:01:52;7.70;;;3.07;;
75311;SDS011;63906;55.686;37.532;2024-01-06T07:06:53;6.23;;;1.80;;
75311;SDS011;63906;55.686;37.532;2024-01-06T07:11:53;4.60;;;2.33;;
75311;SDS011;63906;55.686;37.532;2024-01-06T07:16:54;3.80;;;2.90;;
75311;SDS011;63906;55.686;37.532;2024-01-06T07:21:54;5.57;;;2.97;;
75311;SDS011;63906;55.686;37.532;2024-01-06T07:26:55;7.67;;;3.00;;
75311;SDS011;63906;55.686;37.532;2024-01-06T07:31:55;9.83;;;3.87;;
75311;SDS011;63906;55.686;37.532;2024-01-06T07:36:56;6.22;;;3.40;;
75311;SDS011;63906;55.686;37.532;2024-01-06T07:41:57;11.20;;;3.60;;
75311;SDS011;63906;55.686;37.532;2024-01-06T07:46:58;3.78;;;2.20;;
75311;SDS011;63906;55.686;37.532;2024-01-06T07:51:58;5.47;;;2.23;;
75311;SDS011;63906;55.686;37.532;2024-01-06T07:56:59;9.13;;;3.23;;
75311;SDS011;63906;55.686;37.532;2024-01-06T08:01:59;6.47;;;3.28;;
75311;SDS011;63906;55.686;37.532;2024-01-06T08:07:00;6.13;;;3.60;;
75311;SDS011;63906;55.686;37.532;2024-01-06T08:12:01;4.10;;;2.03;;
75311;SDS011;63906;55.686;37.532;2024-01-06T08:17:02;9.52;;;4.28;;
75311;SDS011;63906;55.686;37.532;2024-01-06T08:22:03;8.23;;;2.30;;
75311;SDS011;63906;55.686;37.532;2024-01-06T08:27:04;10.05;;;3.60;;
75311;SDS011;63906;55.686;37.532;2024-01-06T08:32:05;7.25;;;3.92;;
75311;SDS011;63906;55.686;37.532;2024-01-06T08:37:05;4.60;;;3.15;;
75311;SDS011;63906;55.686;37.532;2024-01-06T08:42:06;6.70;;;3.65;;
75311;SDS011;63906;55.686;37.532;2024-01-06T08:47:06;7.50;;;3.30;;
75311;SDS011;63906;55.686;37.532;2024-01-06T08:52:07;9.40;;;5.03;;
75311;SDS011;63906;55.686;37.532;2024-01-06T08:57:07;8.27;;;3.00;;
75311;SDS011;63906;55.686;37.532;2024-01-06T09:02:08;7.57;;;3.73;;
75311;SDS011;63906;55.686;37.532;2024-01-06T09:07:08;8.17;;;4.60;;
75311;SDS011;63906;55.686;37.532;2024-01-06T09:12:10;11.85;;;4.00;;
75311;SDS011;63906;55.686;37.532;2024-01-06T09:17:11;12.10;;;3.72;;
75311;SDS011;63906;55.686;37.532;2024-01-06T09:22:12;4.65;;;2.78;;
75311;SDS011;63906;55.686;37.532;2024-01-06T09:27:13;9.55;;;4.63;;
75311;SDS011;63906;55.686;37.532;2024-01-06T09:32:15;10.90;;;5.70;;
75311;SDS011;63906;55.686;37.532;2024-01-06T09:37:15;15.30;;;4.97;;
75311;SDS011;63906;55.686;37.532;2024-01-06T09:42:16;11.77;;;4.23;;
75311;SDS011;63906;55.686;37.532;2024-01-06T09:47:17;8.80;;;3.88;;
75311;SDS011;63906;55.686;37.532;2024-01-06T09:52:21;13.45;;;5.75;;
75311;SDS011;63906;55.686;37.532;2024-01-06T09:57:23;9.50;;;4.10;;
75311;SDS011;63906;55.686;37.532;2024-01-06T10:02:24;10.10;;;4.57;;
75311;SDS011;63906;55.686;37.532;2024-01-06T10:07:27;10.85;;;5.05;;
75311;SDS011;63906;55.686;37.532;2024-01-06T10:12:28;9.85;;;4.97;;
75311;SDS011;63906;55.686;37.532;2024-01-06T10:17:28;7.60;;;4.83;;
75311;SDS011;63906;55.686;37.532;2024-01-06T10:22:29;16.87;;;6.43;;
75311;SDS011;63906;55.686;37.532;2024-01-06T10:27:29;11.77;;;5.23;;
75311;SDS011;63906;55.686;37.532;2024-01-06T10:32:31;12.13;;;6.43;;
75311;SDS011;63906;55.686;37.532;2024-01-06T10:37:36;11.32;;;5.55;;
75311;SDS011;63906;55.686;37.532;2024-01-06T10:42:38;11.00;;;5.57;;
75311;SDS011;63906;55.686;37.532;2024-01-06T10:47:43;14.13;;;5.53;;
75311;SDS011;63906;55.686;37.532;2024-01-06T10:52:44;8.98;;;3.90;;
75311;SDS011;63906;55.686;37.532;2024-01-06T10:57:46;11.80;;;4.38;;
75311;SDS011;63906;55.686;37.532;2024-01-06T11:02:48;12.93;;;5.20;;
75311;SDS011;63906;55.686;37.532;2024-01-06T11:07:52;10.38;;;4.93;;
75311;SDS011;63906;55.686;37.532;2024-01-06T11:13:07;14.05;;;5.40;;
75311;SDS011;63906;55.686;37.532;2024-01-06T11:23:30;11.48;;;5.35;;
75311;SDS011;63906;55.686;37.532;2024-01-06T11:28:42;11.70;;;4.72;;
75311;SDS011;63906;55.686;37.532;2024-01-06T11:33:46;9.27;;;4.95;;
75311;SDS011;63906;55.686;37.532;2024-01-06T11:38:51;11.80;;;5.20;;
75311;SDS011;63906;55.686;37.532;2024-01-06T11:43:52;13.43;;;5.05;;
75311;SDS011;63906;55.686;37.532;2024-01-06T11:48:52;12.47;;;4.93;;
75311;SDS011;63906;55.686;37.532;2024-01-06T11:53:53;8.73;;;4.75;;
75311;SDS011;63906;55.686;37.532;2024-01-06T11:58:54;11.77;;;5.32;;
75311;SDS011;63906;55.686;37.532;2024-01-06T12:03:56;12.85;;;4.90;;
75311;SDS011;63906;55.686;37.532;2024-01-06T12:09:04;9.45;;;4.45;;
75311;SDS011;63906;55.686;37.532;2024-01-06T12:14:08;12.18;;;5.53;;
75311;SDS011;63906;55.686;37.532;2024-01-06T12:19:08;10.97;;;5.30;;
75311;SDS011;63906;55.686;37.532;2024-01-06T12:24:15;12.77;;;5.10;;
75311;SDS011;63906;55.686;37.532;2024-01-06T12:29:17;13.63;;;6.72;;
75311;SDS011;63906;55.686;37.532;2024-01-06T12:34:19;9.20;;;5.65;;
75311;SDS011;63906;55.686;37.532;2024-01-06T12:39:20;17.02;;;6.03;;
75311;SDS011;63906;55.686;37.532;2024-01-06T12:44:21;17.02;;;6.40;;
75311;SDS011;63906;55.686;37.532;2024-01-06T12:49:21;15.60;;;6.07;;
75311;SDS011;63906;55.686;37.532;2024-01-06T12:54:22;12.25;;;5.00;;
75311;SDS011;63906;55.686;37.532;2024-01-06T12:59:23;16.77;;;6.23;;
75311;SDS011;63906;55.686;37.532;2024-01-06T13:04:23;11.93;;;5.90;;
75311;SDS011;63906;55.686;37.532;2024-01-06T13:09:23;15.20;;;7.27;;
75311;SDS011;63906;55.686;37.532;2024-01-06T13:14:24;16.20;;;5.82;;
75311;SDS011;63906;55.686;37.532;2024-01-06T13:19:25;14.00;;;5.90;;
75311;SDS011;63906;55.686;37.532;2024-01-06T13:24:25;10.82;;;5.18;;
75311;SDS011;63906;55.686;37.532;2024-01-06T13:29:26;14.63;;;6.30;;
75311;SDS011;63906;55.686;37.532;2024-01-06T13:34:27;10.65;;;4.78;;
75311;SDS011;63906;55.686;37.532;2024-01-06T13:39:29;12.93;;;5.45;;
75311;SDS011;63906;55.686;37.532;2024-01-06T13:44:30;13.68;;;5.55;;
75311;SDS011;63906;55.686;37.532;2024-01-06T13:49:31;7.63;;;5.17;;
75311;SDS011;63906;55.686;37.532;2024-01-06T13:54:31;16.37;;;6.40;;
75311;SDS011;63906;55.686;37.532;2024-01-06T13:59:31;12.33;;;6.50;;
75311;SDS011;63906;55.686;37.532;2024-01-06T14:04:32;11.53;;;5.77;;
75311;SDS011;63906;55.686;37.532;2024-01-06T14:09:32;9.80;;;7.33;;
75311;SDS011;63906;55.686;37.532;2024-01-06T14:14:33;10.75;;;6.22;;
75311;SDS011;63906;55.686;37.532;2024-01-06T14:19:34;16.70;;;5.83;;
75311;SDS011;63906;55.686;37.532;2024-01-06T14:24:34;14.23;;;5.77;;
75311;SDS011;63906;55.686;37.532;2024-01-06T14:29:36;10.07;;;5.68;;
75311;SDS011;63906;55.686;37.532;2024-01-06T14:34:38;17.75;;;6.22;;
75311;SDS011;63906;55.686;37.532;2024-01-06T14:39:38;10.90;;;4.30;;
75311;SDS011;63906;55.686;37.532;2024-01-06T14:44:39;10.77;;;4.47;;
75311;SDS011;63906;55.686;37.532;2024-01-06T14:49:39;13.37;;;4.50;;
75311;SDS011;63906;55.686;37.532;2024-01-06T14:54:39;9.33;;;4.33;;
75311;SDS011;63906;55.686;37.532;2024-01-06T14:59:40;9.53;;;4.70;;
75311;SDS011;63906;55.686;37.532;2024-01-06T15:04:41;10.55;;;4.35;;
75311;SDS011;63906;55.686;37.532;2024-01-06T15:09:41;6.90;;;5.10;;
75311;SDS011;63906;55.686;37.532;2024-01-06T15:14:42;8.60;;;4.60;;
75311;SDS011;63906;55.686;37.532;2024-01-06T15:19:42;9.23;;;5.17;;
75311;SDS011;63906;55.686;37.532;2024-01-06T15:24:42;11.03;;;4.63;;
75311;SDS011;63906;55.686;37.532;2024-01-06T15:29:44;8.20;;;4.20;;
75311;SDS011;63906;55.686;37.532;2024-01-06T15:34:45;12.17;;;5.60;;
75311;SDS011;63906;55.686;37.532;2024-01-06T15:39:45;12.10;;;4.90;;
75311;SDS011;63906;55.686;37.532;2024-01-06T15:44:46;8.83;;;4.60;;
75311;SDS011;63906;55.686;37.532;2024-01-06T15:49:46;10.63;;;5.00;;
75311;SDS011;63906;55.686;37.532;2024-01-06T15:54:50;8.68;;;5.50;;
75311;SDS011;63906;55.686;37.532;2024-01-06T15:59:50;15.18;;;7.55;;
75311;SDS011;63906;55.686;37.532;2024-01-06T16:04:51;12.20;;;5.57;;
75311;SDS011;63906;55.686;37.532;2024-01-06T16:09:52;12.10;;;5.33;;
75311;SDS011;63906;55.686;37.532;2024-01-06T16:14:52;10.57;;;5.40;;
75311;SDS011;63906;55.686;37.532;2024-01-06T16:19:53;11.35;;;5.22;;
75311;SDS011;63906;55.686;37.532;2024-01-06T16:24:53;10.97;;;5.80;;
75311;SDS011;63906;55.686;37.532;2024-01-06T16:29:54;8.50;;;4.47;;
75311;SDS011;63906;55.686;37.532;2024-01-06T16:34:54;12.13;;;4.90;;
75311;SDS011;63906;55.686;37.532;2024-01-06T16:39:54;9.93;;;4.90;;
75311;SDS011;63906;55.686;37.532;2024-01-06T16:44:55;11.23;;;5.22;;
75311;SDS011;63906;55.686;37.532;2024-01-06T16:49:56;10.93;;;5.93;;
75311;SDS011;63906;55.686;37.532;2024-01-06T16:54:56;12.70;;;6.50;;
75311;SDS011;63906;55.686;37.532;2024-01-06T16:59:57;12.57;;;5.90;;
75311;SDS011;63906;55.686;37.532;2024-01-06T17:04:58;16.10;;;7.47;;
75311;SDS011;63906;55.686;37.532;2024-01-06T17:09:58;12.77;;;6.75;;
75311;SDS011;63906;55.686;37.532;2024-01-06T17:15:00;15.38;;;7.70;;
75311;SDS011;63906;55.686;37.532;2024-01-06T17:20:01;12.80;;;6.15;;
75311;SDS011;63906;55.686;37.532;2024-01-06T17:25:01;10.13;;;5.23;;
75311;SDS011;63906;55.686;37.532;2024-01-06T17:30:02;8.77;;;4.78;;
75311;SDS011;63906;55.686;37.532;2024-01-06T17:35:03;14.80;;;5.72;;
75311;SDS011;63906;55.686;37.532;2024-01-06T17:40:04;11.93;;;6.13;;
75311;SDS011;63906;55.686;37.532;2024-01-06T17:45:05;7.03;;;3.90;;
75311;SDS011;63906;55.686;37.532;2024-01-06T17:50:06;10.05;;;4.78;;
75311;SDS011;63906;55.686;37.532;2024-01-06T17:55:07;14.85;;;7.03;;
75311;SDS011;63906;55.686;37.532;2024-01-06T18:00:08;15.05;;;5.85;;
75311;SDS011;63906;55.686;37.532;2024-01-06T18:05:09;14.18;;;5.65;;
75311;SDS011;63906;55.686;37.532;2024-01-06T18:10:09;17.20;;;8.30;;
75311;SDS011;63906;55.686;37.532;2024-01-06T18:15:10;15.10;;;7.25;;
75311;SDS011;63906;55.686;37.532;2024-01-06T18:20:11;13.57;;;7.20;;
75311;SDS011;63906;55.686;37.532;2024-01-06T18:25:12;12.25;;;6.20;;
75311;SDS011;63906;55.686;37.532;2024-01-06T18:30:12;16.85;;;6.63;;
75311;SDS011;63906;55.686;37.532;2024-01-06T18:35:13;14.20;;;6.10;;
75311;SDS011;63906;55.686;37.532;2024-01-06T18:40:13;18.60;;;7.97;;
75311;SDS011;63906;55.686;37.532;2024-01-06T18:45:33;10.88;;;6.00;;
75311;SDS011;63906;55.686;37.532;2024-01-06T18:50:33;10.00;;;5.72;;
75311;SDS011;63906;55.686;37.532;2024-01-06T18:55:34;9.00;;;5.17;;
75311;SDS011;63906;55.686;37.532;2024-01-06T19:00:34;17.50;;;7.37;;
75311;SDS011;63906;55.686;37.532;2024-01-06T19:05:35;9.60;;;5.20;;
75311;SDS011;63906;55.686;37.532;2024-01-06T19:10:36;14.80;;;6.28;;
75311;SDS011;63906;55.686;37.532;2024-01-06T19:15:36;8.15;;;5.85;;
75311;SDS011;63906;55.686;37.532;2024-01-06T19:20:43;20.48;;;7.47;;
75311;SDS011;63906;55.686;37.532;2024-01-06T19:25:45;13.90;;;5.22;;
75311;SDS011;63906;55.686;37.532;2024-01-06T19:30:45;15.33;;;5.40;;
75311;SDS011;63906;55.686;37.532;2024-01-06T19:35:46;16.97;;;7.07;;
75311;SDS011;63906;55.686;37.532;2024-01-06T19:40:46;12.27;;;4.30;;
75311;SDS011;63906;55.686;37.532;2024-01-06T19:45:47;15.48;;;4.68;;
75311;SDS011;63906;55.686;37.532;2024-01-06T19:50:52;7.30;;;3.42;;
75311;SDS011;63906;55.686;37.532;2024-01-06T19:55:52;8.18;;;4.88;;
75311;SDS011;63906;55.686;37.532;2024-01-06T20:00:53;3.13;;;2.60;;
75311;SDS011;63906;55.686;37.532;2024-01-06T20:05:53;9.83;;;4.63;;
75311;SDS011;63906;55.686;37.532;2024-01-06T20:10:54;6.37;;;3.40;;
75311;SDS011;63906;55.686;37.532;2024-01-06T20:16:00;13.55;;;4.20;;
75311;SDS011;63906;55.686;37.532;2024-01-06T20:21:01;5.82;;;2.78;;
75311;SDS011;63906;55.686;37.532;2024-01-06T20:26:03;7.55;;;3.35;;
75311;SDS011;63906;55.686;37.532;2024-01-06T20:31:04;5.60;;;3.67;;
75311;SDS011;63906;55.686;37.532;2024-01-06T20:36:04;8.70;;;3.42;;
75311;SDS011;63906;55.686;37.532;2024-01-06T20:41:07;10.15;;;4.35;;
75311;SDS011;63906;55.686;37.532;2024-01-06T20:46:15;2.67;;;2.47;;
75311;SDS011;63906;55.686;37.532;2024-01-06T20:51:16;4.90;;;3.17;;
75311;SDS011;63906;55.686;37.532;2024-01-06T20:56:20;6.45;;;3.97;;
75311;SDS011;63906;55.686;37.532;2024-01-06T21:01:21;4.80;;;3.47;;
75311;SDS011;63906;55.686;37.532;2024-01-06T21:06:22;3.83;;;2.60;;
75311;SDS011;63906;55.686;37.532;2024-01-06T21:11:22;11.73;;;4.10;;
75311;SDS011;63906;55.686;37.532;2024-01-06T21:16:23;7.45;;;3.60;;
75311;SDS011;63906;55.686;37.532;2024-01-06T21:21:24;8.73;;;3.80;;
75311;SDS011;63906;55.686;37.532;2024-01-06T21:26:25;5.20;;;3.97;;
75311;SDS011;63906;55.686;37.532;2024-01-06T21:31:26;7.90;;;5.40;;
75311;SDS011;63906;55.686;37.532;2024-01-06T21:36:27;8.07;;;4.53;;
75311;SDS011;63906;55.686;37.532;2024-01-06T21:41:28;7.72;;;3.67;;
75311;SDS011;63906;55.686;37.532;2024-01-06T21:46:29;6.50;;;3.23;;
75311;SDS011;63906;55.686;37.532;2024-01-06T21:51:29;9.83;;;3.37;;
75311;SDS011;63906;55.686;37.532;2024-01-06T21:56:30;10.57;;;4.60;;
75311;SDS011;63906;55.686;37.532;2024-01-06T22:01:30;5.57;;;3.03;;
75311;SDS011;63906;55.686;37.532;2024-01-06T22:06:32;9.27;;;5.10;;
75311;SDS011;63906;55.686;37.532;2024-01-06T22:11:36;4.78;;;2.35;;
75311;SDS011;63906;55.686;37.532;2024-01-06T22:16:38;3.83;;;1.60;;
75311;SDS011;63906;55.686;37.532;2024-01-06T22:21:41;7.30;;;3.00;;
75311;SDS011;63906;55.686;37.532;2024-01-06T22:26:43;10.95;;;3.22;;
75311;SDS011;63906;55.686;37.532;2024-01-06T22:31:43;6.27;;;3.03;;
75311;SDS011;63906;55.686;37.532;2024-01-06T22:36:47;5.93;;;3.37;;
75311;SDS011;63906;55.686;37.532;2024-01-06T22:41:47;5.97;;;2.63;;
75311;SDS011;63906;55.686;37.532;2024-01-06T22:46:48;2.35;;;1.42;;
75311;SDS011;63906;55.686;37.532;2024-01-06T22:51:49;10.30;;;2.60;;
75311;SDS011;63906;55.686;37.532;2024-01-06T22:56:49;5.00;;;2.40;;
75311;SDS011;63906;55.686;37.532;2024-01-06T23:01:53;2.83;;;2.08;;
75311;SDS011;63906;55.686;37.532;2024-01-06T23:06:54;3.00;;;2.60;;
75311;SDS011;63906;55.686;37.532;2024-01-06T23:11:54;3.40;;;2.63;;
75311;SDS011;63906;55.686;37.532;2024-01-06T23:16:55;4.05;;;3.15;;
75311;SDS011;63906;55.686;37.532;2024-01-06T23:21:56;2.23;;;2.13;;
75311;SDS011;63906;55.686;37.532;2024-01-06T23:26:56;6.60;;;2.47;;
75311;SDS011;63906;55.686;37.532;2024-01-06T23:31:57;7.43;;;2.27;;
75311;SDS011;63906;55.686;37.532;2024-01-06T23:36:58;4.60;;;2.63;;
75311;SDS011;63906;55.686;37.532;2024-01-06T23:41:58;6.07;;;2.13;;
75311;SDS011;63906;55.686;37.532;2024-01-06T23:46:59;3.73;;;1.67;;
75311;SDS011;63906;55.686;37.532;2024-01-06T23:51:59;2.97;;;1.50;;
75311;SDS011;63906;55.686;37.532;2024-01-06T23:57:00;1.67;;;1.57;;
